Time;durP1;ratioP1;P1;durP2;ratioP2;P2;SDS_P1;SDS_P2;PMS_P1;PMS_P2;Temp;Humidity;BMP_temperature;BMP_pressure;BME280_temperature;BME280_humidity;BME280_pressure;Samples;Min_cycle;Max_cycle;Signal;HPM_P1;HPM_P2
2023/12/17 00:00:21;;;;;;;;;57.00;43.75;;;;;7.86;66.67;103446.16;4942011;28;45216;-73
2023/12/17 00:02:47;;;;;;;;;57.75;43.75;;;;;7.88;66.39;103451.38;4940292;28;55770;-74
2023/12/17 00:05:12;;;;;;;;;58.67;45.67;;;;;7.87;66.55;103447.91;4943143;28;58523;-74
2023/12/17 00:07:37;;;;;;;;;64.33;45.33;;;;;7.85;66.60;103440.91;4940781;28;69008;-72
2023/12/17 00:10:03;;;;;;;;;59.00;44.67;;;;;7.82;66.45;103428.63;4940233;28;70634;-72
2023/12/17 00:12:28;;;;;;;;;61.00;44.50;;;;;7.80;66.56;103438.16;4944476;28;45378;-74
2023/12/17 00:14:54;;;;;;;;;56.33;42.67;;;;;7.79;66.36;103447.69;4939653;28;73534;-73
2023/12/17 00:17:20;;;;;;;;;58.33;43.67;;;;;7.74;66.41;103448.41;4945708;28;59033;-74
2023/12/17 00:19:45;;;;;;;;;57.75;45.75;;;;;7.71;66.16;103448.31;4940941;28;45650;-74
2023/12/17 00:22:11;;;;;;;;;56.75;41.75;;;;;7.68;66.33;103451.69;4942344;28;54016;-73
2023/12/17 00:24:36;;;;;;;;;57.33;42.33;;;;;7.67;66.46;103457.78;4941897;28;71997;-74
2023/12/17 00:27:01;;;;;;;;;55.33;43.67;;;;;7.67;66.17;103457.78;4941198;28;65608;-74
2023/12/17 00:29:27;;;;;;;;;54.50;44.75;;;;;7.65;66.30;103445.53;4942390;28;45578;-74
2023/12/17 00:31:52;;;;;;;;;52.25;43.00;;;;;7.63;66.29;103447.19;4946037;28;45548;-73
2023/12/17 00:34:17;;;;;;;;;54.75;41.25;;;;;7.63;66.33;103458.50;4959778;28;46455;-73
2023/12/17 00:36:43;;;;;;;;;51.67;39.33;;;;;7.62;66.15;103461.97;4945022;28;68216;-73
2023/12/17 00:39:08;;;;;;;;;53.50;40.25;;;;;7.58;66.00;103465.34;4942086;28;45445;-74
2023/12/17 00:41:33;;;;;;;;;53.00;42.00;;;;;7.58;66.13;103471.41;4941059;28;73355;-74
2023/12/17 00:43:59;;;;;;;;;51.25;39.25;;;;;7.53;66.00;103457.38;4941057;28;45519;-74
2023/12/17 00:46:25;;;;;;;;;54.00;42.25;;;;;7.51;65.97;103453.84;4936317;28;57055;-74
2023/12/17 00:48:50;;;;;;;;;54.75;41.00;;;;;7.48;66.08;103448.53;4940121;28;45367;-77
2023/12/17 00:51:15;;;;;;;;;54.67;43.67;;;;;7.44;66.15;103449.28;4937622;28;75004;-78
2023/12/17 00:53:40;;;;;;;;;49.00;39.25;;;;;7.44;66.31;103457.09;4955127;28;66178;-77
2023/12/17 00:56:06;;;;;;;;;56.75;42.75;;;;;7.43;66.18;103465.75;4940091;28;48629;-77
2023/12/17 00:58:31;;;;;;;;;45.00;35.75;;;;;7.41;66.24;103478.72;4939918;28;45324;-78
2023/12/17 01:00:57;;;;;;;;;57.25;41.25;;;;;7.39;66.30;103480.41;4938958;28;64043;-78
2023/12/17 01:03:22;;;;;;;;;54.25;40.75;;;;;7.40;66.27;103490.00;4923660;28;45458;-78
2023/12/17 01:05:47;;;;;;;;;52.67;41.00;;;;;7.40;66.27;103490.00;4939901;28;63872;-77
2023/12/17 01:08:13;;;;;;;;;52.00;41.00;;;;;7.37;66.34;103489.88;4938727;28;65531;-78
2023/12/17 01:10:38;;;;;;;;;51.75;39.25;;;;;7.38;66.42;103493.38;4940164;28;62881;-77
2023/12/17 01:13:04;;;;;;;;;57.00;42.25;;;;;7.35;66.62;103493.31;4937069;28;47101;-77
2023/12/17 01:15:29;;;;;;;;;54.75;41.25;;;;;7.38;66.28;103491.69;4941066;28;45610;-78
2023/12/17 01:17:54;;;;;;;;;50.33;42.00;;;;;7.40;66.29;103495.19;4942922;28;72782;-77
2023/12/17 01:20:20;;;;;;;;;55.25;40.75;;;;;7.39;66.48;103498.63;4940560;28;62514;-76
2023/12/17 01:22:45;;;;;;;;;55.67;44.00;;;;;7.41;66.34;103489.13;4945244;28;70234;-77
2023/12/17 01:25:11;;;;;;;;;52.00;39.25;;;;;7.39;66.49;103488.22;4946412;28;45662;-78
2023/12/17 01:27:36;;;;;;;;;50.50;38.00;;;;;7.36;66.39;103490.72;4943147;28;45330;-77
2023/12/17 01:30:01;;;;;;;;;31.00;22.25;;;;;7.38;66.43;103501.19;4939144;28;46292;-78
2023/12/17 01:32:27;;;;;;;;;50.50;40.25;;;;;7.35;66.47;103488.09;4943367;28;45345;-77
2023/12/17 01:34:52;;;;;;;;;55.00;41.00;;;;;7.35;66.54;103485.50;4944395;28;69324;-77
2023/12/17 01:37:17;;;;;;;;;50.25;37.50;;;;;7.34;66.43;103489.78;4947615;28;45521;-77
2023/12/17 01:39:43;;;;;;;;;53.33;39.00;;;;;7.33;66.45;103489.72;4941467;28;73362;-77
2023/12/17 01:42:08;;;;;;;;;52.33;38.67;;;;;7.32;66.72;103485.38;4944419;28;69149;-78
2023/12/17 01:44:33;;;;;;;;;42.50;36.75;;;;;7.29;66.47;103482.66;4938355;28;57131;-78
2023/12/17 01:46:59;;;;;;;;;54.25;40.75;;;;;7.29;66.60;103478.34;4939040;28;72095;-77
2023/12/17 01:49:25;;;;;;;;;51.00;37.25;;;;;7.29;66.40;103472.25;4937606;28;75770;-77
2023/12/17 01:51:51;;;;;;;;;52.25;41.25;;;;;7.28;66.91;103473.06;4938986;28;45626;-77
2023/12/17 01:54:17;;;;;;;;;46.50;38.25;;;;;7.27;66.80;103472.19;4939880;28;45509;-78
2023/12/17 01:56:43;;;;;;;;;46.50;38.25;;;;;7.27;66.95;103472.19;4938900;28;73265;-78
2023/12/17 01:59:08;;;;;;;;;49.00;38.00;;;;;7.31;66.72;103476.69;4938494;28;58749;-77
2023/12/17 02:01:34;;;;;;;;;51.75;39.25;;;;;7.29;66.70;103482.66;4936068;28;71142;-78
2023/12/17 02:03:59;;;;;;;;;50.25;38.00;;;;;7.30;66.60;103481.84;4937608;28;69361;-77
2023/12/17 02:06:24;;;;;;;;;45.00;35.75;;;;;7.31;66.65;103478.38;4940375;28;65082;-76
2023/12/17 02:08:50;;;;;;;;;54.00;38.25;;;;;7.27;66.54;103472.19;4937912;28;70427;-77
2023/12/17 02:11:15;;;;;;;;;50.00;40.00;;;;;7.26;66.54;103477.34;4938516;28;65670;-77
2023/12/17 02:13:40;;;;;;;;;55.00;37.50;;;;;7.25;66.41;103481.69;4937333;28;45392;-77
2023/12/17 02:16:06;;;;;;;;;47.25;37.75;;;;;7.21;66.45;103477.25;4938366;28;45564;-77
2023/12/17 02:18:32;;;;;;;;;44.75;37.00;;;;;7.21;66.59;103467.69;4943247;28;45601;-76
2023/12/17 02:20:57;;;;;;;;;54.25;39.25;;;;;7.21;66.46;103464.22;4939040;28;54012;-77
2023/12/17 02:23:22;;;;;;;;;42.25;37.50;;;;;7.16;66.24;103458.84;4939914;28;65110;-77
2023/12/17 02:25:48;;;;;;;;;45.75;37.75;;;;;7.16;66.20;103460.59;4939562;28;64639;-76
2023/12/17 02:28:13;;;;;;;;;47.00;37.00;;;;;7.15;66.37;103461.41;4939098;28;45509;-76
2023/12/17 02:30:39;;;;;;;;;48.67;38.00;;;;;7.10;66.27;103453.47;4939655;28;73123;-76
2023/12/17 02:33:04;;;;;;;;;45.25;35.00;;;;;7.06;66.31;103443.78;4956809;28;70453;-78
2023/12/17 02:35:29;;;;;;;;;50.00;36.25;;;;;7.06;66.36;103443.78;4945833;28;45350;-77
2023/12/17 02:37:55;;;;;;;;;44.00;36.75;;;;;7.04;66.39;103442.84;4945450;28;69347;-77
2023/12/17 02:40:20;;;;;;;;;53.33;38.00;;;;;7.02;66.33;103440.19;4946700;28;70595;-77
2023/12/17 02:42:45;;;;;;;;;40.50;34.75;;;;;7.01;66.36;103437.53;4945773;28;64254;-77
2023/12/17 02:45:12;;;;;;;;;43.00;36.33;;;;;6.98;66.43;103430.53;4945920;28;72854;-77
2023/12/17 02:47:37;;;;;;;;;47.75;36.50;;;;;6.97;66.25;103431.34;4948376;28;45498;-77
2023/12/17 02:50:03;;;;;;;;;53.75;38.50;;;;;6.95;66.43;103430.41;4942998;28;45905;-77
2023/12/17 02:52:28;;;;;;;;;46.75;33.00;;;;;6.96;66.47;103436.53;4945243;28;45284;-76
2023/12/17 02:54:54;;;;;;;;;42.75;36.50;;;;;6.95;66.34;103426.94;4943157;28;45475;-76
2023/12/17 02:57:24;;;;;;;;;38.00;34.00;;;;;6.93;66.51;103419.06;4943558;28;45875;-76
2023/12/17 02:59:51;;;;;;;;;41.75;34.75;;;;;6.88;66.33;103406.75;4941637;28;45525;-77
2023/12/17 03:02:17;;;;;;;;;43.00;35.00;;;;;6.84;66.33;103398.84;4940706;28;46369;-77
2023/12/17 03:04:42;;;;;;;;;33.75;30.25;;;;;6.82;66.19;103395.31;4942717;28;47166;-77
2023/12/17 03:07:07;;;;;;;;;41.25;33.75;;;;;6.81;66.07;103393.53;4943470;28;63588;-76
2023/12/17 03:09:33;;;;;;;;;27.25;24.75;;;;;6.78;66.27;103390.84;4941808;28;59569;-77
2023/12/17 03:11:58;;;;;;;;;41.25;34.00;;;;;6.77;66.13;103390.81;4945779;28;45480;-76
2023/12/17 03:14:24;;;;;;;;;50.75;34.75;;;;;6.76;66.29;103373.41;4938797;28;68963;-77
2023/12/17 03:16:49;;;;;;;;;41.25;31.25;;;;;6.73;66.10;103373.31;4956031;28;46198;-76
2023/12/17 03:19:15;;;;;;;;;43.25;30.75;;;;;6.69;66.42;103380.13;4927409;28;72942;-76
2023/12/17 03:21:40;;;;;;;;;39.75;27.75;;;;;6.67;66.37;103374.00;4941476;28;65296;-76
2023/12/17 03:24:06;;;;;;;;;38.25;31.75;;;;;6.66;66.41;103374.84;4940077;28;45291;-77
2023/12/17 03:26:32;;;;;;;;;45.50;31.25;;;;;6.62;66.10;103379.09;4957061;28;63768;-77
2023/12/17 03:28:57;;;;;;;;;36.50;31.25;;;;;6.59;66.20;103376.38;4940723;28;45507;-77
2023/12/17 03:31:23;;;;;;;;;31.25;28.75;;;;;6.54;66.07;103372.72;4941802;28;69142;-77
2023/12/17 03:33:48;;;;;;;;;18.75;15.75;;;;;6.51;65.98;103371.75;4945836;28;65895;-77
2023/12/17 03:36:15;;;;;;;;;42.75;33.50;;;;;6.44;66.34;103363.72;4940349;28;54703;-77
2023/12/17 03:38:41;;;;;;;;;38.75;33.25;;;;;6.40;66.27;103364.47;4947018;28;45436;-77
2023/12/17 03:41:07;;;;;;;;;44.00;35.00;;;;;6.39;66.44;103372.22;4945278;28;45287;-77
2023/12/17 03:43:32;;;;;;;;;39.75;33.00;;;;;6.32;66.32;103363.38;4951736;28;45575;-76
2023/12/17 03:45:57;;;;;;;;;25.33;18.00;;;;;6.27;66.28;103364.91;4945934;28;74609;-76
2023/12/17 03:48:23;;;;;;;;;45.67;33.67;;;;;6.20;66.58;103360.34;4942983;28;75100;-77
2023/12/17 03:50:48;;;;;;;;;42.33;32.67;;;;;6.14;66.59;103354.94;4944582;28;69246;-78
2023/12/17 03:53:13;;;;;;;;;42.50;29.25;;;;;6.12;66.67;103354.00;4938438;28;70629;-76
2023/12/17 03:55:39;;;;;;;;;47.25;34.75;;;;;6.08;66.55;103356.50;4939953;28;68167;-76
2023/12/17 03:58:04;;;;;;;;;36.00;30.50;;;;;5.99;66.88;103345.78;4941331;28;45271;-76
2023/12/17 04:00:30;;;;;;;;;38.50;32.25;;;;;5.98;67.01;103346.59;4940585;28;45231;-76
2023/12/17 04:02:56;;;;;;;;;38.50;30.00;;;;;5.93;66.80;103339.44;4940919;28;45718;-76
2023/12/17 04:05:23;;;;;;;;;33.75;30.25;;;;;5.89;67.07;103344.53;4939611;28;46021;-77
2023/12/17 04:07:48;;;;;;;;;42.75;28.50;;;;;5.83;66.87;103346.06;4944425;28;46674;-76
2023/12/17 04:10:13;;;;;;;;;32.67;29.00;;;;;5.83;66.98;103351.25;4938836;28;68048;-76
2023/12/17 04:12:39;;;;;;;;;31.00;26.50;;;;;5.81;67.03;103346.00;4939679;28;66317;-77
2023/12/17 04:15:04;;;;;;;;;30.50;26.50;;;;;5.78;67.11;103340.69;4923617;28;47709;-77
2023/12/17 04:17:30;;;;;;;;;37.00;30.00;;;;;5.71;67.14;103330.91;4943073;28;45556;-76
2023/12/17 04:19:56;;;;;;;;;31.50;22.75;;;;;5.70;67.13;103330.03;4942389;28;45441;-77
2023/12/17 04:22:21;;;;;;;;;35.25;27.50;;;;;5.73;67.25;103336.16;4939655;28;45567;-76
2023/12/17 04:24:46;;;;;;;;;33.50;26.00;;;;;5.69;67.47;103330.84;4940130;28;73306;-76
2023/12/17 04:27:12;;;;;;;;;29.00;26.50;;;;;5.68;67.17;103334.31;4924846;28;45218;-76
2023/12/17 04:29:37;;;;;;;;;33.00;27.50;;;;;5.66;67.25;103335.94;4955540;28;45363;-75
2023/12/17 04:32:03;;;;;;;;;35.50;27.75;;;;;5.61;67.21;103334.91;4921932;28;45615;-76
2023/12/17 04:34:28;;;;;;;;;38.75;27.75;;;;;5.56;66.93;103335.56;4939025;28;48345;-76
2023/12/17 04:36:55;;;;;;;;;34.25;25.50;;;;;5.51;67.20;103328.50;4943214;28;60251;-76
2023/12/17 04:39:21;;;;;;;;;25.50;20.75;;;;;5.48;67.38;103328.38;4945218;28;45577;-75
2023/12/17 04:41:46;;;;;;;;;33.25;25.75;;;;;5.46;67.35;103332.63;4950681;28;45574;-76
2023/12/17 04:44:11;;;;;;;;;26.25;25.50;;;;;5.43;67.34;103326.44;4940915;28;63567;-76
2023/12/17 04:46:38;;;;;;;;;30.25;26.00;;;;;5.41;67.44;103331.59;4942975;28;67259;-76
2023/12/17 04:49:03;;;;;;;;;29.00;23.75;;;;;5.37;67.64;103321.94;4945708;28;45480;-76
2023/12/17 04:51:28;;;;;;;;;33.25;25.50;;;;;5.37;67.79;103332.31;4943564;28;69921;-76
2023/12/17 04:53:54;;;;;;;;;33.75;25.25;;;;;5.36;67.95;103325.34;4944850;28;46475;-75
2023/12/17 04:56:21;;;;;;;;;32.50;24.00;;;;;5.36;67.96;103327.06;4939568;28;45486;-76
2023/12/17 04:58:46;;;;;;;;;38.50;26.00;;;;;5.37;67.88;103327.13;4923684;28;57826;-76
2023/12/17 05:01:11;;;;;;;;;34.25;24.00;;;;;5.37;67.90;103324.53;4935005;28;45235;-76
2023/12/17 05:03:38;;;;;;;;;30.25;24.75;;;;;5.35;67.84;103320.09;4940103;28;71176;-76
2023/12/17 05:06:04;;;;;;;;;29.50;24.25;;;;;5.36;68.12;103317.56;4924770;28;45347;-76
2023/12/17 05:08:29;;;;;;;;;30.50;22.00;;;;;5.37;68.06;103318.47;4941362;28;45279;-76
2023/12/17 05:10:55;;;;;;;;;26.50;23.75;;;;;5.37;68.15;103321.06;4941937;28;45442;-77
2023/12/17 05:13:20;;;;;;;;;32.75;25.00;;;;;5.34;67.97;103324.41;4936545;28;74380;-76
2023/12/17 05:15:45;;;;;;;;;33.50;24.25;;;;;5.30;67.88;103318.22;4939048;28;45529;-77
2023/12/17 05:18:11;;;;;;;;;36.75;23.25;;;;;5.27;68.43;103309.44;4945023;28;45168;-77
2023/12/17 05:20:37;;;;;;;;;30.50;28.00;;;;;5.22;68.17;103313.56;4923687;28;45536;-78
2023/12/17 05:23:02;;;;;;;;;31.75;23.00;;;;;5.24;68.35;103318.00;4936332;28;69308;-77
2023/12/17 05:25:27;;;;;;;;;33.00;22.50;;;;;5.24;68.05;103328.41;4930437;28;45375;-78
2023/12/17 05:27:53;;;;;;;;;30.25;23.50;;;;;5.24;68.39;103330.06;4941505;28;45425;-77
2023/12/17 05:30:19;;;;;;;;;34.50;26.75;;;;;5.22;68.64;103340.41;4940440;28;63953;-77
2023/12/17 05:32:44;;;;;;;;;28.00;24.75;;;;;5.21;68.50;103332.59;4939063;28;46362;-77
2023/12/17 05:35:10;;;;;;;;;31.50;26.75;;;;;5.18;68.40;103341.13;4942595;28;63105;-76
2023/12/17 05:37:35;;;;;;;;;27.25;22.75;;;;;5.19;68.38;103342.00;4941264;28;45533;-76
2023/12/17 05:40:01;;;;;;;;;26.75;20.75;;;;;5.16;68.40;103347.97;4945729;28;65867;-77
2023/12/17 05:42:26;;;;;;;;;31.75;21.25;;;;;5.16;68.36;103347.09;4937066;28;46943;-76
2023/12/17 05:44:52;;;;;;;;;26.00;20.75;;;;;5.15;68.58;103351.38;4947650;28;45261;-76
2023/12/17 05:47:17;;;;;;;;;30.50;22.50;;;;;5.15;68.70;103351.38;4945057;28;45563;-75
2023/12/17 05:49:42;;;;;;;;;26.25;21.50;;;;;5.10;68.73;103340.84;4942994;28;63466;-75
2023/12/17 05:52:08;;;;;;;;;39.00;23.25;;;;;5.08;68.54;103339.91;4942566;28;74554;-75
2023/12/17 05:54:34;;;;;;;;;30.50;23.50;;;;;5.04;68.92;103335.41;4940064;28;45356;-75
2023/12/17 05:57:00;;;;;;;;;32.50;24.00;;;;;5.03;68.88;103345.72;4940595;28;45550;-75
2023/12/17 05:59:25;;;;;;;;;28.25;21.75;;;;;4.99;68.95;103344.72;4940592;28;45641;-75
2023/12/17 06:01:50;;;;;;;;;26.50;23.75;;;;;4.95;68.92;103335.94;4939659;28;75667;-75
2023/12/17 06:04:16;;;;;;;;;31.75;26.25;;;;;4.93;68.92;103334.13;4942868;28;68146;-75
2023/12/17 06:06:41;;;;;;;;;31.50;26.75;;;;;4.88;69.11;103335.66;4942089;28;67153;-75
2023/12/17 06:09:07;;;;;;;;;25.75;15.00;;;;;4.87;69.14;103341.66;4944116;28;45563;-76
2023/12/17 06:11:32;;;;;;;;;31.00;25.00;;;;;4.85;69.26;103343.31;4946499;28;46171;-76
2023/12/17 06:13:58;;;;;;;;;31.50;24.25;;;;;4.83;69.25;103329.41;4925008;28;67521;-76
2023/12/17 06:16:23;;;;;;;;;34.25;26.50;;;;;4.81;69.60;103337.13;4945075;28;45398;-77
2023/12/17 06:18:49;;;;;;;;;35.75;26.75;;;;;4.80;69.65;103345.75;4948985;28;69188;-76
2023/12/17 06:21:22;;;;;;;;;32.75;25.50;;;;;4.80;69.40;103344.84;4959989;28;47098;-75
2023/12/17 06:23:47;;;;;;;;;32.00;22.75;;;;;4.75;69.18;103342.09;4951330;28;45655;-76
2023/12/17 06:26:12;;;;;;;;;26.50;20.25;;;;;4.72;69.59;103349.75;4943094;28;69302;-76
2023/12/17 06:28:38;;;;;;;;;25.75;22.25;;;;;4.70;69.49;103351.41;4948215;28;64522;-76
2023/12/17 06:31:03;;;;;;;;;28.25;22.25;;;;;4.68;69.68;103340.09;4944451;28;60655;-76
2023/12/17 06:33:28;;;;;;;;;27.50;22.00;;;;;4.65;69.65;103345.13;4943089;28;45438;-76
2023/12/17 06:35:54;;;;;;;;;34.25;23.50;;;;;4.65;69.51;103345.13;4946435;28;51969;-76
2023/12/17 06:38:20;;;;;;;;;21.75;19.00;;;;;4.64;69.68;103340.75;4948122;28;66277;-76
2023/12/17 06:40:46;;;;;;;;;24.75;18.75;;;;;4.62;69.71;103343.31;4931498;28;45388;-76
2023/12/17 06:43:11;;;;;;;;;30.50;25.25;;;;;4.60;69.77;103337.16;4931294;28;45344;-76
2023/12/17 06:45:37;;;;;;;;;31.25;22.00;;;;;4.63;69.90;103341.59;4951041;28;45335;-76
2023/12/17 06:48:02;;;;;;;;;25.75;19.25;;;;;4.63;70.04;103342.47;4933339;28;45467;-77
2023/12/17 06:50:28;;;;;;;;;35.25;22.50;;;;;4.67;69.96;103343.50;4949203;28;46188;-76
2023/12/17 06:52:53;;;;;;;;;22.00;16.50;;;;;4.68;69.96;103338.38;4947724;28;66749;-76
2023/12/17 06:55:18;;;;;;;;;27.00;20.50;;;;;4.71;69.97;103347.97;4946511;28;58518;-76
2023/12/17 06:57:47;;;;;;;;;29.25;20.75;;;;;4.71;69.93;103337.59;4944075;28;66486;-76
2023/12/17 07:00:14;;;;;;;;;28.75;16.25;;;;;4.72;69.88;103336.78;4948807;28;47069;-76
2023/12/17 07:02:39;;;;;;;;;24.25;19.00;;;;;4.72;69.91;103344.56;4941962;28;45605;-76
2023/12/17 07:05:05;;;;;;;;;28.75;22.00;;;;;4.70;69.74;103341.91;4945684;28;45434;-75
2023/12/17 07:07:30;;;;;;;;;30.25;24.25;;;;;4.70;69.92;103341.91;4943177;28;45504;-75
2023/12/17 07:09:56;;;;;;;;;26.25;20.75;;;;;4.70;70.03;103343.63;4941489;28;46514;-75
2023/12/17 07:12:21;;;;;;;;;31.50;22.75;;;;;4.71;69.93;103335.91;4940744;28;72813;-75
2023/12/17 07:14:46;;;;;;;;;29.75;24.00;;;;;4.73;70.06;103334.25;4944075;28;68991;-76
2023/12/17 07:17:11;;;;;;;;;23.25;18.25;;;;;4.72;70.00;103331.59;4943649;28;45348;-75
2023/12/17 07:19:37;;;;;;;;;31.50;23.50;;;;;4.77;70.08;103340.44;4942946;28;60632;-75
2023/12/17 07:22:02;;;;;;;;;30.75;22.50;;;;;4.79;70.16;103330.13;4942225;28;73158;-75
2023/12/17 07:24:28;;;;;;;;;35.50;23.00;;;;;4.78;70.14;103339.63;4941198;28;45360;-75
2023/12/17 07:26:53;;;;;;;;;34.75;23.50;;;;;4.80;70.31;103340.56;4941862;28;45232;-75
2023/12/17 07:29:18;;;;;;;;;27.25;21.25;;;;;4.80;70.30;103335.38;4942558;28;48384;-75
2023/12/17 07:31:44;;;;;;;;;43.00;28.00;;;;;4.82;70.44;103331.13;4950137;28;70587;-75
2023/12/17 07:34:10;;;;;;;;;44.25;28.50;;;;;4.82;70.51;103333.72;4937764;28;67370;-76
2023/12/17 07:36:35;;;;;;;;;41.25;27.00;;;;;4.80;70.46;103330.19;4947210;28;45252;-76
2023/12/17 07:39:01;;;;;;;;;38.50;25.50;;;;;4.79;70.55;103323.22;4943983;28;64688;-76
2023/12/17 07:41:26;;;;;;;;;37.50;26.50;;;;;4.80;70.37;103327.59;4942499;28;73300;-76
2023/12/17 07:43:51;;;;;;;;;37.00;23.75;;;;;4.80;70.31;103319.81;4941889;28;61124;-76
2023/12/17 07:46:16;;;;;;;;;33.67;25.67;;;;;4.81;70.62;103328.47;4940058;28;72563;-75
2023/12/17 07:48:42;;;;;;;;;27.25;22.50;;;;;4.82;70.42;103328.53;4940107;28;71070;-77
2023/12/17 07:51:07;;;;;;;;;37.25;24.50;;;;;4.80;70.38;103325.00;4941428;28;67647;-76
2023/12/17 07:53:32;;;;;;;;;32.25;28.25;;;;;4.82;70.34;103323.34;4949473;28;45407;-78
2023/12/17 07:55:59;;;;;;;;;27.00;23.00;;;;;4.84;70.42;103323.41;4943654;28;73655;-77
2023/12/17 07:58:25;;;;;;;;;39.50;26.25;;;;;4.83;70.64;103329.41;4949761;28;46127;-76
2023/12/17 08:00:51;;;;;;;;;30.00;24.00;;;;;4.79;70.72;103323.22;4940072;28;45482;-77
2023/12/17 08:03:16;;;;;;;;;34.50;25.50;;;;;4.80;70.53;103331.88;4937935;28;45544;-77
2023/12/17 08:05:42;;;;;;;;;30.25;20.25;;;;;4.80;70.47;103326.69;4942985;28;73809;-78
2023/12/17 08:08:07;;;;;;;;;28.25;21.50;;;;;4.83;70.35;103334.59;4921748;28;63386;-77
2023/12/17 08:10:32;;;;;;;;;38.00;27.00;;;;;4.83;70.45;103326.81;4949585;28;73384;-77
2023/12/17 08:12:58;;;;;;;;;21.50;17.50;;;;;4.81;70.25;103323.28;4941293;28;66009;-79
2023/12/17 08:15:26;;;;;;;;;27.25;21.25;;;;;4.82;70.48;103323.34;4939463;28;73874;-77
2023/12/17 08:17:51;;;;;;;;;31.00;23.50;;;;;4.83;70.46;103316.44;4943728;28;46936;-77
2023/12/17 08:20:17;;;;;;;;;28.00;21.50;;;;;4.83;70.38;103329.41;4945765;28;56188;-76
2023/12/17 08:22:43;;;;;;;;;32.25;24.50;;;;;4.81;70.30;103329.34;4960173;28;46188;-76
2023/12/17 08:25:08;;;;;;;;;35.00;22.50;;;;;4.83;70.31;103335.47;4944136;28;48237;-77
2023/12/17 08:27:34;;;;;;;;;29.25;21.00;;;;;4.82;70.13;103336.31;4941421;28;45974;-77
2023/12/17 08:29:59;;;;;;;;;26.75;21.00;;;;;4.83;70.29;103335.47;4923739;28;45351;-73
2023/12/17 08:32:31;;;;;;;;;30.75;19.75;;;;;4.84;70.41;103326.00;4944057;28;70101;-74
2023/12/17 08:34:57;;;;;;;;;31.75;22.00;;;;;4.85;70.05;103325.16;4954557;28;45736;-73
2023/12/17 08:37:24;;;;;;;;;28.25;18.50;;;;;4.85;70.14;103332.94;4939653;28;48095;-71
2023/12/17 08:39:49;;;;;;;;;28.50;19.75;;;;;4.86;70.28;103330.41;4937490;28;46097;-70
2023/12/17 08:42:15;;;;;;;;;27.00;23.00;;;;;4.86;69.76;103335.59;4948373;28;69307;-69
2023/12/17 08:44:40;;;;;;;;;32.50;21.50;;;;;4.87;70.24;103328.69;4943446;28;50538;-69
2023/12/17 08:47:06;;;;;;;;;30.25;22.00;;;;;4.88;70.05;103333.94;4941696;28;45443;-68
2023/12/17 08:49:32;;;;;;;;;35.50;22.25;;;;;4.84;70.01;103321.69;4947179;28;73320;-75
2023/12/17 08:51:57;;;;;;;;;26.00;21.25;;;;;4.86;70.14;103333.00;4947820;28;45283;-71
2023/12/17 08:54:22;;;;;;;;;36.50;17.50;;;;;4.88;70.00;103323.56;4939132;28;45327;-69
2023/12/17 08:56:48;;;;;;;;;24.50;19.00;;;;;4.88;69.85;103325.28;4945180;28;75781;-69
2023/12/17 08:59:13;;;;;;;;;26.50;22.00;;;;;4.89;69.79;103319.28;4937735;28;53388;-67
2023/12/17 09:01:38;;;;;;;;;28.75;18.50;;;;;4.87;69.80;103321.81;4951138;28;67328;-66
2023/12/17 09:04:04;;;;;;;;;30.25;20.50;;;;;4.90;70.02;103323.63;4938328;28;45390;-66
2023/12/17 09:06:29;;;;;;;;;37.25;21.75;;;;;4.93;69.89;103315.97;4948910;28;45978;-67
2023/12/17 09:08:54;;;;;;;;;27.50;19.50;;;;;4.93;69.99;103319.44;4947543;28;69835;-67
2023/12/17 09:11:21;;;;;;;;;31.50;18.00;;;;;4.97;69.85;103320.44;4954224;28;53033;-72
2023/12/17 09:13:46;;;;;;;;;27.00;21.75;;;;;4.99;69.82;103317.91;4942090;28;45514;-69
2023/12/17 09:16:11;;;;;;;;;24.00;19.00;;;;;4.99;69.80;103320.50;4938386;28;65104;-68
2023/12/17 09:18:38;;;;;;;;;26.00;17.25;;;;;4.99;69.70;103321.38;4947758;28;68951;-68
2023/12/17 09:21:04;;;;;;;;;29.75;22.00;;;;;5.01;69.85;103319.75;4951564;28;45517;-73
2023/12/17 09:23:29;;;;;;;;;27.00;21.25;;;;;5.03;69.91;103322.38;4941094;28;45316;-72
2023/12/17 09:25:57;;;;;;;;;25.00;17.00;;;;;5.06;69.59;103325.97;4942226;28;45366;-70
2023/12/17 09:28:22;;;;;;;;;28.50;19.00;;;;;5.09;69.58;103325.22;4945517;28;45235;-70
2023/12/17 09:30:47;;;;;;;;;22.50;18.00;;;;;5.13;69.63;103324.50;4945183;28;69652;-70
2023/12/17 09:33:13;;;;;;;;;27.50;22.50;;;;;5.12;69.53;103323.63;4927823;28;66808;-69
2023/12/17 09:35:39;;;;;;;;;27.00;19.25;;;;;5.14;69.63;103329.75;4947212;28;73828;-68
2023/12/17 09:38:04;;;;;;;;;21.00;15.00;;;;;5.18;69.47;103325.56;4948028;28;45277;-66
2023/12/17 09:40:31;;;;;;;;;33.25;19.75;;;;;5.18;69.12;103330.75;4946818;28;45336;-68
2023/12/17 09:42:57;;;;;;;;;27.25;19.00;;;;;5.17;69.30;103325.50;4937495;28;45568;-67
2023/12/17 09:45:22;;;;;;;;;31.25;21.00;;;;;5.18;69.42;103329.88;4925696;28;45811;-69
2023/12/17 09:47:48;;;;;;;;;33.50;22.50;;;;;5.20;69.56;103329.09;4946768;28;45638;-69
2023/12/17 09:50:13;;;;;;;;;24.25;19.25;;;;;5.25;69.21;103324.94;4965557;28;45995;-69
2023/12/17 09:52:41;;;;;;;;;30.75;25.75;;;;;5.32;69.18;103324.34;4937493;28;62338;-70
2023/12/17 09:55:06;;;;;;;;;30.00;21.50;;;;;5.39;69.21;103332.38;4940749;28;47184;-67
2023/12/17 09:57:32;;;;;;;;;23.75;20.50;;;;;5.44;69.02;103328.25;4945120;28;46443;-70
2023/12/17 09:59:57;;;;;;;;;28.25;19.00;;;;;5.47;68.83;103324.03;4947303;28;68132;-69
2023/12/17 10:02:22;;;;;;;;;28.50;22.00;;;;;5.51;68.95;103323.31;4937604;28;70891;-70
2023/12/17 10:04:48;;;;;;;;;29.75;20.75;;;;;5.58;69.04;103318.31;4944928;28;45436;-74
2023/12/17 10:07:13;;;;;;;;;29.75;20.00;;;;;5.66;68.76;103322.06;4956765;28;71898;-71
2023/12/17 10:09:38;;;;;;;;;28.25;21.50;;;;;5.73;68.78;103320.59;4937742;28;68300;-72
2023/12/17 10:12:04;;;;;;;;;27.50;21.25;;;;;5.77;68.56;103318.16;4935116;28;45612;-73
2023/12/17 10:14:30;;;;;;;;;27.00;18.75;;;;;5.83;68.41;103310.56;4923181;28;48225;-72
2023/12/17 10:16:56;;;;;;;;;32.25;22.50;;;;;5.89;68.53;103315.06;4943730;28;45460;-76
2023/12/17 10:19:22;;;;;;;;;24.00;18.75;;;;;5.94;68.21;103312.66;4959331;28;45325;-70
2023/12/17 10:21:47;;;;;;;;;84.75;61.25;;;;;5.97;68.37;103307.59;4936311;28;68133;-77
2023/12/17 10:24:13;;;;;;;;;31.50;23.25;;;;;5.99;67.94;103312.00;4944738;28;46474;-72
2023/12/17 10:26:49;;;;;;;;;28.25;21.00;;;;;6.04;67.79;103312.16;4944850;28;46206;-73
2023/12/17 10:29:16;;;;;;;;;27.75;19.75;;;;;6.08;67.74;103301.91;4941661;28;45498;-70
2023/12/17 10:31:42;;;;;;;;;25.25;18.00;;;;;6.09;67.66;103300.16;4942881;28;45407;-75
2023/12/17 10:34:22;;;;;;;;;23.25;19.00;;;;;6.12;67.58;103302.00;4927176;28;46934;-76
2023/12/17 10:36:50;;;;;;;;;19.25;15.50;;;;;6.14;67.37;103297.72;4941369;28;45640;-72
2023/12/17 10:39:17;;;;;;;;;27.00;23.50;;;;;6.19;67.50;103293.56;4945074;28;45491;-75
2023/12/17 10:41:42;;;;;;;;;29.25;23.50;;;;;6.26;67.41;103292.94;4940771;28;45513;-72
2023/12/17 10:44:12;;;;;;;;;25.75;19.00;;;;;6.31;67.39;103283.56;4938024;28;48670;-75
2023/12/17 10:46:41;;;;;;;;;29.00;23.25;;;;;6.35;67.16;103280.22;4936421;28;47134;-73
2023/12/17 10:49:07;;;;;;;;;23.25;17.25;;;;;6.41;67.08;103270.03;4936155;28;45514;-67
2023/12/17 10:51:34;;;;;;;;;26.00;24.00;;;;;6.42;67.01;103256.16;4946690;28;60340;-70
2023/12/17 10:54:00;;;;;;;;;33.75;26.25;;;;;6.49;66.91;103256.38;4943636;28;47195;-68
2023/12/17 10:56:27;;;;;;;;;27.50;23.25;;;;;6.54;66.57;103247.88;4941600;28;45390;-69
2023/12/17 10:58:53;;;;;;;;;45.75;36.25;;;;;6.58;66.71;103248.84;4951114;28;45597;-70
2023/12/17 11:01:18;;;;;;;;;41.50;30.75;;;;;6.70;66.62;103248.31;4941600;28;68201;-70
2023/12/17 11:03:44;;;;;;;;;27.50;21.25;;;;;6.75;66.11;103245.03;4960945;28;46513;-68
2023/12/17 11:06:09;;;;;;;;;33.75;24.75;;;;;6.76;66.19;103240.69;4945539;28;47298;-68
2023/12/17 11:08:36;;;;;;;;;30.00;24.75;;;;;6.78;66.26;103234.72;4969693;28;45409;-69